sensor_id;sensor_type;location;lat;lon;timestamp;P1;durP1;ratioP1;P2;durP2;ratioP2
57085;SDS011;42964;42.910;23.792;2023-04-19T00:00:44;10.80;;;6.15;;
57085;SDS011;42964;42.910;23.792;2023-04-19T00:05:43;8.43;;;5.82;;
57085;SDS011;42964;42.910;23.792;2023-04-19T00:10:42;11.55;;;6.43;;
57085;SDS011;42964;42.910;23.792;2023-04-19T00:15:41;8.85;;;5.97;;
57085;SDS011;42964;42.910;23.792;2023-04-19T00:20:40;11.52;;;6.78;;
57085;SDS011;42964;42.910;23.792;2023-04-19T00:25:39;9.73;;;6.05;;
57085;SDS011;42964;42.910;23.792;2023-04-19T00:30:38;8.75;;;6.32;;
57085;SDS011;42964;42.910;23.792;2023-04-19T00:35:38;10.00;;;7.07;;
57085;SDS011;42964;42.910;23.792;2023-04-19T00:40:39;9.38;;;6.18;;
57085;SDS011;42964;42.910;23.792;2023-04-19T00:45:38;9.55;;;5.90;;
57085;SDS011;42964;42.910;23.792;2023-04-19T00:50:37;9.98;;;6.63;;
57085;SDS011;42964;42.910;23.792;2023-04-19T00:55:39;11.07;;;6.88;;
57085;SDS011;42964;42.910;23.792;2023-04-19T01:00:38;9.50;;;7.05;;
57085;SDS011;42964;42.910;23.792;2023-04-19T01:05:37;12.38;;;7.38;;
57085;SDS011;42964;42.910;23.792;2023-04-19T01:15:35;13.48;;;7.50;;
57085;SDS011;42964;42.910;23.792;2023-04-19T01:20:34;11.90;;;7.70;;
57085;SDS011;42964;42.910;23.792;2023-04-19T01:25:33;12.52;;;7.25;;
57085;SDS011;42964;42.910;23.792;2023-04-19T01:30:34;9.85;;;6.70;;
57085;SDS011;42964;42.910;23.792;2023-04-19T01:35:33;14.10;;;8.65;;
57085;SDS011;42964;42.910;23.792;2023-04-19T01:40:32;67.75;;;57.05;;
57085;SDS011;42964;42.910;23.792;2023-04-19T01:50:31;10.73;;;6.82;;
57085;SDS011;42964;42.910;23.792;2023-04-19T01:55:30;10.02;;;6.90;;
57085;SDS011;42964;42.910;23.792;2023-04-19T02:00:29;12.95;;;8.40;;
57085;SDS011;42964;42.910;23.792;2023-04-19T02:05:28;14.50;;;9.07;;
57085;SDS011;42964;42.910;23.792;2023-04-19T02:10:27;15.38;;;10.32;;
57085;SDS011;42964;42.910;23.792;2023-04-19T02:15:26;14.90;;;10.25;;
57085;SDS011;42964;42.910;23.792;2023-04-19T02:20:25;16.33;;;9.82;;
57085;SDS011;42964;42.910;23.792;2023-04-19T02:25:24;15.13;;;11.25;;
57085;SDS011;42964;42.910;23.792;2023-04-19T02:35:22;18.33;;;12.15;;
57085;SDS011;42964;42.910;23.792;2023-04-19T02:40:21;16.63;;;11.15;;
57085;SDS011;42964;42.910;23.792;2023-04-19T02:45:21;16.77;;;12.15;;
57085;SDS011;42964;42.910;23.792;2023-04-19T02:50:20;17.77;;;11.43;;
57085;SDS011;42964;42.910;23.792;2023-04-19T02:55:19;20.38;;;12.85;;
57085;SDS011;42964;42.910;23.792;2023-04-19T03:00:18;17.95;;;11.40;;
57085;SDS011;42964;42.910;23.792;2023-04-19T03:05:17;18.40;;;11.68;;
57085;SDS011;42964;42.910;23.792;2023-04-19T03:10:16;16.65;;;11.15;;
57085;SDS011;42964;42.910;23.792;2023-04-19T03:15:16;16.48;;;11.15;;
57085;SDS011;42964;42.910;23.792;2023-04-19T03:20:15;18.17;;;10.98;;
57085;SDS011;42964;42.910;23.792;2023-04-19T03:25:15;19.58;;;11.75;;
57085;SDS011;42964;42.910;23.792;2023-04-19T03:30:15;19.60;;;12.25;;
57085;SDS011;42964;42.910;23.792;2023-04-19T03:35:14;17.88;;;12.50;;
57085;SDS011;42964;42.910;23.792;2023-04-19T03:45:11;17.83;;;12.57;;
57085;SDS011;42964;42.910;23.792;2023-04-19T03:50:10;18.10;;;12.48;;
57085;SDS011;42964;42.910;23.792;2023-04-19T03:55:09;19.20;;;12.70;;
57085;SDS011;42964;42.910;23.792;2023-04-19T04:00:10;19.55;;;13.68;;
57085;SDS011;42964;42.910;23.792;2023-04-19T04:05:09;20.88;;;14.82;;
57085;SDS011;42964;42.910;23.792;2023-04-19T04:10:08;21.95;;;14.77;;
57085;SDS011;42964;42.910;23.792;2023-04-19T04:20:06;24.90;;;15.55;;
57085;SDS011;42964;42.910;23.792;2023-04-19T04:25:06;20.58;;;15.98;;
57085;SDS011;42964;42.910;23.792;2023-04-19T04:30:06;21.58;;;16.23;;
57085;SDS011;42964;42.910;23.792;2023-04-19T04:35:05;24.63;;;17.67;;
57085;SDS011;42964;42.910;23.792;2023-04-19T04:40:05;28.10;;;19.08;;
57085;SDS011;42964;42.910;23.792;2023-04-19T04:45:06;34.22;;;21.60;;
57085;SDS011;42964;42.910;23.792;2023-04-19T04:50:08;31.58;;;21.73;;
57085;SDS011;42964;42.910;23.792;2023-04-19T05:00:07;32.92;;;19.25;;
57085;SDS011;42964;42.910;23.792;2023-04-19T05:05:07;29.33;;;19.50;;
57085;SDS011;42964;42.910;23.792;2023-04-19T05:10:08;29.48;;;18.50;;
57085;SDS011;42964;42.910;23.792;2023-04-19T05:20:06;30.73;;;21.95;;
57085;SDS011;42964;42.910;23.792;2023-04-19T05:25:06;33.92;;;24.08;;
57085;SDS011;42964;42.910;23.792;2023-04-19T05:30:05;33.25;;;23.35;;
57085;SDS011;42964;42.910;23.792;2023-04-19T05:35:05;33.97;;;23.35;;
57085;SDS011;42964;42.910;23.792;2023-04-19T05:40:04;36.83;;;25.58;;
57085;SDS011;42964;42.910;23.792;2023-04-19T05:45:07;39.17;;;23.13;;
57085;SDS011;42964;42.910;23.792;2023-04-19T05:50:06;30.70;;;21.77;;
57085;SDS011;42964;42.910;23.792;2023-04-19T06:00:04;28.67;;;19.23;;
57085;SDS011;42964;42.910;23.792;2023-04-19T06:05:06;37.38;;;24.70;;
57085;SDS011;42964;42.910;23.792;2023-04-19T06:10:05;36.22;;;24.73;;
57085;SDS011;42964;42.910;23.792;2023-04-19T06:15:05;35.20;;;23.95;;
57085;SDS011;42964;42.910;23.792;2023-04-19T06:20:05;33.05;;;22.27;;
57085;SDS011;42964;42.910;23.792;2023-04-19T06:25:05;28.33;;;19.63;;
57085;SDS011;42964;42.910;23.792;2023-04-19T06:30:05;33.65;;;21.92;;
57085;SDS011;42964;42.910;23.792;2023-04-19T06:35:04;28.83;;;20.13;;
57085;SDS011;42964;42.910;23.792;2023-04-19T06:40:04;28.63;;;18.63;;
57085;SDS011;42964;42.910;23.792;2023-04-19T06:45:05;30.20;;;19.65;;
57085;SDS011;42964;42.910;23.792;2023-04-19T06:50:05;31.30;;;21.10;;
57085;SDS011;42964;42.910;23.792;2023-04-19T06:55:05;28.15;;;20.17;;
57085;SDS011;42964;42.910;23.792;2023-04-19T07:00:05;30.02;;;20.20;;
57085;SDS011;42964;42.910;23.792;2023-04-19T07:05:05;35.42;;;23.52;;
57085;SDS011;42964;42.910;23.792;2023-04-19T07:10:07;33.45;;;23.75;;
57085;SDS011;42964;42.910;23.792;2023-04-19T07:15:06;35.10;;;23.55;;
57085;SDS011;42964;42.910;23.792;2023-04-19T07:20:06;38.20;;;25.83;;
57085;SDS011;42964;42.910;23.792;2023-04-19T07:25:05;38.53;;;27.13;;
57085;SDS011;42964;42.910;23.792;2023-04-19T07:30:05;43.13;;;29.33;;
57085;SDS011;42964;42.910;23.792;2023-04-19T07:35:05;46.40;;;31.48;;
57085;SDS011;42964;42.910;23.792;2023-04-19T07:40:04;31.73;;;23.83;;
57085;SDS011;42964;42.910;23.792;2023-04-19T07:45:04;28.95;;;20.42;;
57085;SDS011;42964;42.910;23.792;2023-04-19T07:50:03;29.20;;;20.67;;
57085;SDS011;42964;42.910;23.792;2023-04-19T07:55:05;26.77;;;17.15;;
57085;SDS011;42964;42.910;23.792;2023-04-19T08:00:05;27.63;;;19.52;;
57085;SDS011;42964;42.910;23.792;2023-04-19T08:05:04;24.83;;;16.63;;
57085;SDS011;42964;42.910;23.792;2023-04-19T08:10:04;22.88;;;16.50;;
57085;SDS011;42964;42.910;23.792;2023-04-19T08:15:06;22.90;;;15.55;;
57085;SDS011;42964;42.910;23.792;2023-04-19T08:20:06;27.38;;;17.98;;
57085;SDS011;42964;42.910;23.792;2023-04-19T08:25:06;22.77;;;13.80;;
57085;SDS011;42964;42.910;23.792;2023-04-19T08:30:05;22.75;;;15.15;;
57085;SDS011;42964;42.910;23.792;2023-04-19T08:35:05;22.88;;;16.60;;
57085;SDS011;42964;42.910;23.792;2023-04-19T08:40:05;24.58;;;18.13;;
57085;SDS011;42964;42.910;23.792;2023-04-19T08:45:06;30.30;;;17.00;;
57085;SDS011;42964;42.910;23.792;2023-04-19T08:50:06;29.00;;;16.95;;
57085;SDS011;42964;42.910;23.792;2023-04-19T08:55:06;19.20;;;14.07;;
57085;SDS011;42964;42.910;23.792;2023-04-19T09:00:06;22.70;;;16.33;;
57085;SDS011;42964;42.910;23.792;2023-04-19T09:05:07;19.77;;;15.80;;
57085;SDS011;42964;42.910;23.792;2023-04-19T09:10:08;21.17;;;17.38;;
57085;SDS011;42964;42.910;23.792;2023-04-19T09:15:08;23.73;;;18.40;;
57085;SDS011;42964;42.910;23.792;2023-04-19T09:20:08;22.45;;;16.30;;
57085;SDS011;42964;42.910;23.792;2023-04-19T09:25:07;23.20;;;18.15;;
57085;SDS011;42964;42.910;23.792;2023-04-19T09:30:07;24.23;;;17.80;;
57085;SDS011;42964;42.910;23.792;2023-04-19T09:35:06;17.88;;;14.10;;
57085;SDS011;42964;42.910;23.792;2023-04-19T09:40:21;20.33;;;15.13;;
57085;SDS011;42964;42.910;23.792;2023-04-19T09:45:21;21.38;;;14.68;;
57085;SDS011;42964;42.910;23.792;2023-04-19T09:50:20;20.00;;;14.60;;
57085;SDS011;42964;42.910;23.792;2023-04-19T09:55:19;20.70;;;13.75;;
57085;SDS011;42964;42.910;23.792;2023-04-19T10:00:19;22.63;;;15.60;;
57085;SDS011;42964;42.910;23.792;2023-04-19T10:05:20;18.05;;;12.70;;
57085;SDS011;42964;42.910;23.792;2023-04-19T10:10:20;16.25;;;11.30;;
57085;SDS011;42964;42.910;23.792;2023-04-19T10:15:19;16.42;;;13.02;;
57085;SDS011;42964;42.910;23.792;2023-04-19T10:20:25;19.20;;;14.43;;
57085;SDS011;42964;42.910;23.792;2023-04-19T10:25:30;16.33;;;10.55;;
57085;SDS011;42964;42.910;23.792;2023-04-19T10:30:29;18.27;;;12.10;;
57085;SDS011;42964;42.910;23.792;2023-04-19T10:35:35;15.55;;;12.10;;
57085;SDS011;42964;42.910;23.792;2023-04-19T10:45:50;15.05;;;11.70;;
57085;SDS011;42964;42.910;23.792;2023-04-19T10:50:56;13.55;;;9.60;;
57085;SDS011;42964;42.910;23.792;2023-04-19T10:55:56;12.80;;;9.88;;
57085;SDS011;42964;42.910;23.792;2023-04-19T11:06:30;14.20;;;10.35;;
57085;SDS011;42964;42.910;23.792;2023-04-19T11:11:32;14.43;;;9.60;;
57085;SDS011;42964;42.910;23.792;2023-04-19T11:16:34;15.55;;;9.00;;
57085;SDS011;42964;42.910;23.792;2023-04-19T11:21:38;11.10;;;8.73;;
57085;SDS011;42964;42.910;23.792;2023-04-19T11:26:38;12.77;;;8.43;;
57085;SDS011;42964;42.910;23.792;2023-04-19T11:31:42;19.25;;;11.32;;
57085;SDS011;42964;42.910;23.792;2023-04-19T11:36:50;13.98;;;10.18;;
57085;SDS011;42964;42.910;23.792;2023-04-19T11:41:50;10.77;;;8.32;;
57085;SDS011;42964;42.910;23.792;2023-04-19T11:46:58;16.70;;;12.20;;
57085;SDS011;42964;42.910;23.792;2023-04-19T11:51:59;13.02;;;11.15;;
57085;SDS011;42964;42.910;23.792;2023-04-19T11:57:03;12.65;;;9.45;;
57085;SDS011;42964;42.910;23.792;2023-04-19T12:02:03;12.90;;;10.82;;
57085;SDS011;42964;42.910;23.792;2023-04-19T12:07:03;17.45;;;10.52;;
57085;SDS011;42964;42.910;23.792;2023-04-19T12:12:04;13.50;;;9.73;;
57085;SDS011;42964;42.910;23.792;2023-04-19T12:22:12;11.05;;;9.02;;
57085;SDS011;42964;42.910;23.792;2023-04-19T12:27:15;13.38;;;9.15;;
57085;SDS011;42964;42.910;23.792;2023-04-19T12:32:15;10.18;;;6.95;;
57085;SDS011;42964;42.910;23.792;2023-04-19T12:37:14;8.55;;;5.45;;
57085;SDS011;42964;42.910;23.792;2023-04-19T12:42:13;5.90;;;4.43;;
57085;SDS011;42964;42.910;23.792;2023-04-19T12:47:12;5.75;;;4.03;;
57085;SDS011;42964;42.910;23.792;2023-04-19T12:52:11;3.97;;;2.90;;
57085;SDS011;42964;42.910;23.792;2023-04-19T12:57:10;6.88;;;4.25;;
57085;SDS011;42964;42.910;23.792;2023-04-19T13:02:09;10.27;;;5.93;;
57085;SDS011;42964;42.910;23.792;2023-04-19T13:07:08;8.48;;;5.03;;
57085;SDS011;42964;42.910;23.792;2023-04-19T13:12:07;7.55;;;5.15;;
57085;SDS011;42964;42.910;23.792;2023-04-19T13:17:06;7.70;;;4.43;;
57085;SDS011;42964;42.910;23.792;2023-04-19T13:22:05;6.80;;;3.67;;
57085;SDS011;42964;42.910;23.792;2023-04-19T13:32:03;5.55;;;4.28;;
57085;SDS011;42964;42.910;23.792;2023-04-19T13:37:05;6.80;;;5.18;;
57085;SDS011;42964;42.910;23.792;2023-04-19T13:42:05;6.68;;;4.35;;
57085;SDS011;42964;42.910;23.792;2023-04-19T13:52:03;10.95;;;6.78;;
57085;SDS011;42964;42.910;23.792;2023-04-19T14:02:04;7.07;;;4.50;;
57085;SDS011;42964;42.910;23.792;2023-04-19T14:07:03;15.05;;;8.52;;
57085;SDS011;42964;42.910;23.792;2023-04-19T14:12:02;11.40;;;7.15;;
57085;SDS011;42964;42.910;23.792;2023-04-19T14:17:02;10.50;;;7.15;;
57085;SDS011;42964;42.910;23.792;2023-04-19T14:22:01;10.95;;;6.90;;
57085;SDS011;42964;42.910;23.792;2023-04-19T14:31:59;11.48;;;7.35;;
57085;SDS011;42964;42.910;23.792;2023-04-19T14:36:58;12.38;;;8.50;;
57085;SDS011;42964;42.910;23.792;2023-04-19T14:46:56;12.77;;;7.75;;
57085;SDS011;42964;42.910;23.792;2023-04-19T14:56:54;11.48;;;7.07;;
57085;SDS011;42964;42.910;23.792;2023-04-19T15:06:53;13.50;;;9.10;;
57085;SDS011;42964;42.910;23.792;2023-04-19T15:16:50;8.83;;;5.57;;
57085;SDS011;42964;42.910;23.792;2023-04-19T15:26:48;14.60;;;9.90;;
57085;SDS011;42964;42.910;23.792;2023-04-19T15:36:46;11.48;;;8.68;;
57085;SDS011;42964;42.910;23.792;2023-04-19T15:46:43;11.15;;;7.53;;
57085;SDS011;42964;42.910;23.792;2023-04-19T15:56:41;14.85;;;9.13;;
57085;SDS011;42964;42.910;23.792;2023-04-19T16:01:40;11.75;;;8.60;;
57085;SDS011;42964;42.910;23.792;2023-04-19T16:06:40;10.27;;;7.80;;
57085;SDS011;42964;42.910;23.792;2023-04-19T16:16:37;11.35;;;8.10;;
57085;SDS011;42964;42.910;23.792;2023-04-19T16:21:36;12.55;;;8.45;;
57085;SDS011;42964;42.910;23.792;2023-04-19T16:31:34;18.05;;;13.35;;
57085;SDS011;42964;42.910;23.792;2023-04-19T16:36:33;20.00;;;14.02;;
57085;SDS011;42964;42.910;23.792;2023-04-19T16:46:31;19.70;;;13.93;;
57085;SDS011;42964;42.910;23.792;2023-04-19T16:51:30;32.35;;;23.52;;
57085;SDS011;42964;42.910;23.792;2023-04-19T17:01:28;40.15;;;29.42;;
57085;SDS011;42964;42.910;23.792;2023-04-19T17:11:26;20.37;;;14.60;;
57085;SDS011;42964;42.910;23.792;2023-04-19T17:16:28;21.27;;;16.50;;
57085;SDS011;42964;42.910;23.792;2023-04-19T17:21:27;19.20;;;14.75;;
57085;SDS011;42964;42.910;23.792;2023-04-19T17:31:25;17.77;;;14.13;;
57085;SDS011;42964;42.910;23.792;2023-04-19T17:36:24;21.30;;;17.23;;
57085;SDS011;42964;42.910;23.792;2023-04-19T17:41:24;19.85;;;14.68;;
57085;SDS011;42964;42.910;23.792;2023-04-19T17:51:21;20.60;;;14.85;;
57085;SDS011;42964;42.910;23.792;2023-04-19T17:56:20;21.02;;;15.98;;
57085;SDS011;42964;42.910;23.792;2023-04-19T18:01:19;19.55;;;16.13;;
57085;SDS011;42964;42.910;23.792;2023-04-19T18:11:18;37.50;;;26.60;;
57085;SDS011;42964;42.910;23.792;2023-04-19T18:16:17;34.67;;;26.02;;
57085;SDS011;42964;42.910;23.792;2023-04-19T18:21:17;43.20;;;33.40;;
57085;SDS011;42964;42.910;23.792;2023-04-19T18:26:16;31.23;;;24.05;;
57085;SDS011;42964;42.910;23.792;2023-04-19T18:31:15;27.13;;;19.65;;
57085;SDS011;42964;42.910;23.792;2023-04-19T18:36:14;26.02;;;18.38;;
57085;SDS011;42964;42.910;23.792;2023-04-19T18:41:12;28.73;;;20.08;;
57085;SDS011;42964;42.910;23.792;2023-04-19T18:46:12;24.00;;;17.13;;
57085;SDS011;42964;42.910;23.792;2023-04-19T18:51:11;22.40;;;16.73;;
57085;SDS011;42964;42.910;23.792;2023-04-19T18:56:10;26.08;;;20.48;;
57085;SDS011;42964;42.910;23.792;2023-04-19T19:01:09;33.78;;;25.42;;
57085;SDS011;42964;42.910;23.792;2023-04-19T19:06:09;39.95;;;29.25;;
57085;SDS011;42964;42.910;23.792;2023-04-19T19:11:08;44.10;;;30.20;;
57085;SDS011;42964;42.910;23.792;2023-04-19T19:16:07;30.75;;;24.73;;
57085;SDS011;42964;42.910;23.792;2023-04-19T19:21:06;34.50;;;26.42;;
57085;SDS011;42964;42.910;23.792;2023-04-19T19:26:06;40.05;;;27.10;;
57085;SDS011;42964;42.910;23.792;2023-04-19T19:31:05;46.58;;;35.17;;
57085;SDS011;42964;42.910;23.792;2023-04-19T19:36:04;41.67;;;31.35;;
57085;SDS011;42964;42.910;23.792;2023-04-19T19:46:05;39.95;;;29.92;;
57085;SDS011;42964;42.910;23.792;2023-04-19T19:51:04;68.18;;;33.20;;
57085;SDS011;42964;42.910;23.792;2023-04-19T19:56:03;39.20;;;29.63;;
57085;SDS011;42964;42.910;23.792;2023-04-19T20:01:03;37.95;;;29.65;;
57085;SDS011;42964;42.910;23.792;2023-04-19T20:06:02;65.75;;;48.05;;
57085;SDS011;42964;42.910;23.792;2023-04-19T20:11:02;46.47;;;36.53;;
57085;SDS011;42964;42.910;23.792;2023-04-19T20:16:01;52.25;;;40.78;;
57085;SDS011;42964;42.910;23.792;2023-04-19T20:25:58;44.30;;;33.50;;
57085;SDS011;42964;42.910;23.792;2023-04-19T20:30:58;46.55;;;33.92;;
57085;SDS011;42964;42.910;23.792;2023-04-19T20:35:57;50.53;;;37.60;;
57085;SDS011;42964;42.910;23.792;2023-04-19T20:40:58;56.25;;;38.28;;
57085;SDS011;42964;42.910;23.792;2023-04-19T20:45:57;59.50;;;42.80;;
57085;SDS011;42964;42.910;23.792;2023-04-19T20:50:55;52.60;;;40.88;;
57085;SDS011;42964;42.910;23.792;2023-04-19T20:55:54;39.65;;;27.02;;
57085;SDS011;42964;42.910;23.792;2023-04-19T21:00:53;39.15;;;31.02;;
57085;SDS011;42964;42.910;23.792;2023-04-19T21:05:52;39.05;;;29.73;;
57085;SDS011;42964;42.910;23.792;2023-04-19T21:10:51;33.70;;;26.98;;
57085;SDS011;42964;42.910;23.792;2023-04-19T21:15:50;39.33;;;28.30;;
57085;SDS011;42964;42.910;23.792;2023-04-19T21:20:49;36.85;;;28.42;;
57085;SDS011;42964;42.910;23.792;2023-04-19T21:25:48;37.22;;;29.20;;
57085;SDS011;42964;42.910;23.792;2023-04-19T21:30:47;40.35;;;31.40;;
57085;SDS011;42964;42.910;23.792;2023-04-19T21:35:46;48.83;;;34.88;;
57085;SDS011;42964;42.910;23.792;2023-04-19T21:40:45;47.25;;;35.88;;
57085;SDS011;42964;42.910;23.792;2023-04-19T21:45:44;55.97;;;40.60;;
57085;SDS011;42964;42.910;23.792;2023-04-19T21:50:43;57.28;;;38.45;;
57085;SDS011;42964;42.910;23.792;2023-04-19T21:55:42;61.45;;;41.47;;
57085;SDS011;42964;42.910;23.792;2023-04-19T22:00:41;59.15;;;41.22;;
57085;SDS011;42964;42.910;23.792;2023-04-19T22:10:39;64.57;;;44.47;;
57085;SDS011;42964;42.910;23.792;2023-04-19T22:15:40;71.57;;;46.40;;
57085;SDS011;42964;42.910;23.792;2023-04-19T22:20:40;69.13;;;47.00;;
57085;SDS011;42964;42.910;23.792;2023-04-19T22:30:38;89.22;;;56.90;;
57085;SDS011;42964;42.910;23.792;2023-04-19T22:35:37;74.50;;;49.70;;
57085;SDS011;42964;42.910;23.792;2023-04-19T22:40:36;63.05;;;42.33;;
57085;SDS011;42964;42.910;23.792;2023-04-19T22:50:33;89.53;;;57.50;;
57085;SDS011;42964;42.910;23.792;2023-04-19T23:00:31;49.40;;;33.60;;
57085;SDS011;42964;42.910;23.792;2023-04-19T23:10:31;61.50;;;41.85;;
57085;SDS011;42964;42.910;23.792;2023-04-19T23:15:30;60.83;;;39.83;;
57085;SDS011;42964;42.910;23.792;2023-04-19T23:20:30;56.67;;;39.83;;
57085;SDS011;42964;42.910;23.792;2023-04-19T23:25:29;62.90;;;39.72;;
57085;SDS011;42964;42.910;23.792;2023-04-19T23:30:28;60.15;;;40.40;;
57085;SDS011;42964;42.910;23.792;2023-04-19T23:35:29;58.63;;;38.53;;
57085;SDS011;42964;42.910;23.792;2023-04-19T23:40:28;50.15;;;35.45;;
57085;SDS011;42964;42.910;23.792;2023-04-19T23:45:27;50.38;;;33.55;;
57085;SDS011;42964;42.910;23.792;2023-04-19T23:50:26;52.35;;;32.17;;
